createdAt,value
2018-12-25T00:00:57.284Z,7.57
2018-12-25T00:01:57.266Z,7.57
2018-12-25T00:02:57.245Z,7.57
2018-12-25T00:03:57.223Z,7.57
2018-12-25T00:04:57.199Z,7.64
2018-12-25T00:05:57.182Z,7.62
2018-12-25T00:06:57.160Z,7.57
2018-12-25T00:07:57.139Z,7.52
2018-12-25T00:08:57.117Z,7.60
2018-12-25T00:09:57.098Z,7.55
2018-12-25T00:10:57.081Z,7.57
2018-12-25T00:11:57.053Z,7.66
2018-12-25T00:12:57.048Z,7.68
2018-12-25T00:13:57.012Z,7.55
2018-12-25T00:14:56.991Z,7.47
2018-12-25T00:15:56.970Z,7.44
2018-12-25T00:16:56.946Z,7.40
2018-12-25T00:17:56.932Z,7.46
2018-12-25T00:18:56.905Z,7.42
2018-12-25T00:19:56.889Z,7.47
2018-12-25T00:20:56.863Z,7.44
2018-12-25T00:21:56.848Z,7.49
2018-12-25T00:22:56.823Z,7.44
2018-12-25T00:23:56.806Z,7.40
2018-12-25T00:24:56.788Z,7.40
2018-12-25T00:25:56.759Z,7.40
2018-12-25T00:26:56.737Z,7.49
2018-12-25T00:27:56.717Z,7.40
2018-12-25T00:28:56.693Z,7.36
2018-12-25T00:29:56.671Z,7.49
2018-12-25T00:30:56.649Z,7.42
2018-12-25T00:31:56.627Z,7.39
2018-12-25T00:32:56.613Z,7.42
2018-12-25T00:33:56.591Z,7.40
2018-12-25T00:34:56.567Z,7.47
2018-12-25T00:35:56.548Z,7.46
2018-12-25T00:36:56.523Z,7.44
2018-12-25T00:37:56.509Z,7.54
2018-12-25T00:38:56.482Z,7.47
2018-12-25T00:39:56.459Z,7.43
2018-12-25T00:40:56.442Z,7.50
2018-12-25T00:41:56.414Z,7.43
2018-12-25T00:42:56.394Z,7.46
2018-12-25T00:43:56.379Z,7.54
2018-12-25T00:44:56.355Z,7.47
2018-12-25T00:45:56.331Z,7.54
2018-12-25T00:46:56.310Z,7.49
2018-12-25T00:47:56.302Z,7.66
2018-12-25T00:48:56.268Z,7.58
2018-12-25T00:49:56.254Z,7.54
2018-12-25T00:50:56.227Z,7.57
2018-12-25T00:51:56.203Z,7.60
2018-12-25T00:52:56.182Z,7.62
2018-12-25T00:53:56.162Z,7.69
2018-12-25T00:54:56.140Z,7.60
2018-12-25T00:55:56.118Z,7.62
2018-12-25T00:56:56.097Z,7.80
2018-12-25T00:57:56.075Z,7.62
2018-12-25T00:58:56.055Z,7.71
2018-12-25T00:59:56.038Z,7.57
2018-12-25T01:00:56.013Z,7.68
2018-12-25T01:01:55.991Z,7.57
2018-12-25T01:02:55.972Z,7.54
2018-12-25T01:03:55.949Z,7.58
2018-12-25T01:04:55.932Z,7.62
2018-12-25T01:05:55.909Z,7.54
2018-12-25T01:06:55.886Z,7.46
2018-12-25T01:07:55.865Z,7.46
2018-12-25T01:08:55.848Z,7.43
2018-12-25T01:09:55.822Z,7.49
2018-12-25T01:10:55.808Z,7.52
2018-12-25T01:11:55.784Z,7.50
2018-12-25T01:12:55.760Z,7.47
2018-12-25T01:13:55.738Z,7.50
2018-12-25T01:14:55.718Z,7.50
2018-12-25T01:15:55.710Z,7.44
2018-12-25T01:16:55.673Z,7.36
2018-12-25T01:17:55.657Z,7.34
2018-12-25T01:18:55.631Z,7.29
2018-12-25T01:19:55.609Z,7.25
2018-12-25T01:20:55.589Z,7.34
2018-12-25T01:21:55.571Z,7.31
2018-12-25T01:22:55.545Z,7.33
2018-12-25T01:23:55.525Z,7.36
2018-12-25T01:24:55.507Z,7.37
2018-12-25T01:25:55.492Z,7.40
2018-12-25T01:26:55.463Z,7.43
2018-12-25T01:27:55.443Z,7.46
2018-12-25T01:28:55.418Z,7.46
2018-12-25T01:29:55.399Z,7.50
2018-12-25T01:30:55.376Z,7.57
2018-12-25T01:31:55.355Z,7.55
2018-12-25T01:32:55.334Z,7.55
2018-12-25T01:33:55.318Z,7.55
2018-12-25T01:34:55.297Z,7.58
2018-12-25T01:35:55.272Z,7.55
2018-12-25T01:36:55.250Z,7.50
2018-12-25T01:37:55.230Z,7.47
2018-12-25T01:38:55.207Z,7.55
2018-12-25T01:39:55.187Z,7.52
2018-12-25T01:40:55.164Z,7.49
2018-12-25T01:41:55.144Z,7.50
2018-12-25T01:42:55.125Z,7.61
2018-12-25T01:43:55.105Z,7.54
2018-12-25T01:44:55.083Z,7.55
2018-12-25T01:45:55.060Z,7.54
2018-12-25T01:46:55.046Z,7.58
2018-12-25T01:47:55.021Z,7.60
2018-12-25T01:48:55.001Z,7.60
2018-12-25T01:49:54.971Z,7.66
2018-12-25T01:50:54.951Z,7.58
2018-12-25T01:51:54.930Z,7.58
2018-12-25T01:52:54.911Z,7.60
2018-12-25T01:53:54.886Z,7.62
2018-12-25T01:54:54.866Z,7.69
2018-12-25T01:55:54.846Z,7.62
2018-12-25T01:56:54.824Z,7.64
2018-12-25T01:57:54.800Z,7.57
2018-12-25T01:58:54.782Z,7.60
2018-12-25T01:59:54.760Z,7.55
2018-12-25T02:00:54.739Z,7.54
2018-12-25T02:01:54.717Z,7.60
2018-12-25T02:02:54.696Z,7.54
2018-12-25T02:03:54.674Z,7.47
2018-12-25T02:04:54.654Z,7.54
2018-12-25T02:05:54.632Z,7.52
2018-12-25T02:06:54.613Z,7.57
2018-12-25T02:07:54.589Z,7.60
2018-12-25T02:08:54.569Z,7.44
2018-12-25T02:09:54.545Z,7.42
2018-12-25T02:10:54.527Z,7.34
2018-12-25T02:11:54.503Z,7.31
2018-12-25T02:12:54.481Z,7.31
2018-12-25T02:13:54.468Z,7.33
2018-12-25T02:14:54.444Z,7.34
2018-12-25T02:15:54.417Z,7.34
2018-12-25T02:16:54.396Z,7.28
2018-12-25T02:17:54.377Z,7.31
2018-12-25T02:18:54.355Z,7.40
2018-12-25T02:19:54.337Z,7.28
2018-12-25T02:20:54.322Z,7.29
2018-12-25T02:21:54.293Z,7.24
2018-12-25T02:22:54.271Z,7.24
2018-12-25T02:23:54.254Z,7.34
2018-12-25T02:24:54.251Z,7.28
2018-12-25T02:25:54.205Z,7.15
2018-12-25T02:26:54.188Z,7.08
2018-12-25T02:27:54.171Z,7.13
2018-12-25T02:28:54.141Z,7.04
2018-12-25T02:29:54.122Z,7.08
2018-12-25T02:30:54.101Z,7.06
2018-12-25T02:31:54.084Z,7.16
2018-12-25T02:32:54.057Z,7.13
2018-12-25T02:33:54.034Z,7.04
2018-12-25T02:34:54.014Z,7.19
2018-12-25T02:35:53.991Z,7.15
2018-12-25T02:36:53.971Z,7.15
2018-12-25T02:37:53.957Z,7.16
2018-12-25T02:38:53.929Z,7.16
2018-12-25T02:39:53.908Z,7.16
2018-12-25T02:40:53.888Z,7.21
2018-12-25T02:41:53.866Z,7.07
2018-12-25T02:42:53.842Z,7.16
2018-12-25T02:43:53.821Z,7.21
2018-12-25T02:44:53.797Z,7.10
2018-12-25T02:45:53.781Z,7.11
2018-12-25T02:46:53.755Z,7.11
2018-12-25T02:47:53.741Z,7.08
2018-12-25T02:48:53.711Z,7.10
2018-12-25T02:49:53.696Z,7.11
2018-12-25T02:50:53.672Z,7.03
2018-12-25T02:51:53.647Z,7.08
2018-12-25T02:52:53.637Z,7.03
2018-12-25T02:53:53.604Z,7.10
2018-12-25T02:54:53.584Z,7.01
2018-12-25T02:55:53.566Z,6.97
2018-12-25T02:56:53.545Z,6.97
2018-12-25T02:57:53.517Z,7.00
2018-12-25T02:58:53.498Z,6.99
2018-12-25T02:59:53.482Z,6.96
2018-12-25T03:00:53.456Z,7.06
2018-12-25T03:01:53.431Z,7.07
2018-12-25T03:02:53.411Z,7.06
2018-12-25T03:03:53.396Z,7.06
2018-12-25T03:04:53.428Z,7.00
2018-12-25T03:05:53.347Z,6.88
2018-12-25T03:06:53.325Z,6.89
2018-12-25T03:07:53.305Z,6.96
2018-12-25T03:08:53.284Z,6.88
2018-12-25T03:09:53.259Z,6.96
2018-12-25T03:10:53.238Z,6.99
2018-12-25T03:11:53.219Z,6.91
2018-12-25T03:12:53.194Z,7.08
2018-12-25T03:13:53.176Z,7.00
2018-12-25T03:14:53.156Z,7.03
2018-12-25T03:15:53.133Z,7.01
2018-12-25T03:16:53.111Z,7.00
2018-12-25T03:17:53.092Z,6.96
2018-12-25T03:18:53.066Z,7.03
2018-12-25T03:19:59.898Z,7.01
2018-12-25T03:20:53.018Z,7.00
2018-12-25T03:21:53.009Z,7.06
2018-12-25T03:22:52.978Z,7.04
2018-12-25T03:23:52.956Z,6.93
2018-12-25T03:24:52.934Z,6.97
2018-12-25T03:25:52.913Z,6.89
2018-12-25T03:26:52.894Z,6.85
2018-12-25T03:27:52.873Z,6.92
2018-12-25T03:28:52.847Z,6.88
2018-12-25T03:29:52.826Z,6.93
2018-12-25T03:30:52.810Z,6.93
2018-12-25T03:31:52.789Z,6.92
2018-12-25T03:32:52.783Z,6.97
2018-12-25T03:33:52.740Z,6.89
2018-12-25T03:34:52.722Z,6.91
2018-12-25T03:35:52.697Z,6.96
2018-12-25T03:36:52.681Z,6.97
2018-12-25T03:37:52.659Z,6.89
2018-12-25T03:38:52.630Z,6.99
2018-12-25T03:39:52.607Z,6.91
2018-12-25T03:40:52.587Z,6.97
2018-12-25T03:41:52.569Z,6.96
2018-12-25T03:42:52.552Z,6.89
2018-12-25T03:43:52.527Z,7.00
2018-12-25T03:44:52.501Z,6.91
2018-12-25T03:45:52.480Z,6.91
2018-12-25T03:46:52.460Z,6.88
2018-12-25T03:47:52.485Z,6.89
2018-12-25T03:48:52.419Z,7.01
2018-12-25T03:49:52.391Z,6.96
2018-12-25T03:50:52.370Z,6.86
2018-12-25T03:51:52.357Z,6.92
2018-12-25T03:52:52.327Z,6.99
2018-12-25T03:53:52.306Z,6.96
2018-12-25T03:54:52.285Z,6.91
2018-12-25T03:55:52.265Z,6.83
2018-12-25T03:56:52.250Z,6.86
2018-12-25T03:57:52.220Z,6.82
2018-12-25T03:58:52.197Z,6.79
2018-12-25T03:59:52.173Z,6.81
2018-12-25T04:00:52.156Z,6.78
2018-12-25T04:01:52.131Z,6.78
2018-12-25T04:02:52.113Z,6.81
2018-12-25T04:03:52.093Z,6.85
2018-12-25T04:04:52.066Z,6.92
2018-12-25T04:05:52.043Z,6.91
2018-12-25T04:06:52.022Z,6.91
2018-12-25T04:07:52.000Z,6.89
2018-12-25T04:08:51.979Z,6.92
2018-12-25T04:09:51.961Z,7.03
2018-12-25T04:10:51.941Z,6.97
2018-12-25T04:11:51.917Z,6.91
2018-12-25T04:12:51.892Z,7.10
2018-12-25T04:13:51.877Z,7.00
2018-12-25T04:14:51.852Z,6.99
2018-12-25T04:15:51.831Z,6.83
2018-12-25T04:16:51.804Z,6.85
2018-12-25T04:17:51.784Z,6.79
2018-12-25T04:18:51.763Z,6.82
2018-12-25T04:19:51.742Z,6.83
2018-12-25T04:20:51.718Z,6.86
2018-12-25T04:21:51.697Z,6.92
2018-12-25T04:22:51.677Z,6.86
2018-12-25T04:23:51.656Z,6.85
2018-12-25T04:24:51.632Z,6.81
2018-12-25T04:25:51.714Z,6.75
2018-12-25T04:26:51.588Z,6.71
2018-12-25T04:27:51.567Z,6.78
2018-12-25T04:28:51.562Z,6.70
2018-12-25T04:29:51.531Z,6.68
2018-12-25T04:30:51.581Z,6.81
2018-12-25T04:31:51.481Z,6.75
2018-12-25T04:32:51.459Z,6.81
2018-12-25T04:33:51.439Z,6.82
2018-12-25T04:34:51.415Z,6.81
2018-12-25T04:35:51.393Z,6.74
2018-12-25T04:36:51.374Z,6.81
2018-12-25T04:37:51.350Z,6.78
2018-12-25T04:38:51.350Z,6.85
2018-12-25T04:39:51.308Z,6.81
2018-12-25T04:40:51.288Z,6.78
2018-12-25T04:41:51.268Z,6.73
2018-12-25T04:42:51.242Z,6.75
2018-12-25T04:43:51.221Z,6.73
2018-12-25T04:44:51.198Z,6.56
2018-12-25T04:45:51.180Z,6.71
2018-12-25T04:46:51.154Z,6.73
2018-12-25T04:47:51.135Z,6.81
2018-12-25T04:48:51.119Z,6.79
2018-12-25T04:49:51.091Z,6.82
2018-12-25T04:50:51.071Z,6.79
2018-12-25T04:51:51.050Z,6.88
2018-12-25T04:52:51.036Z,6.96
2018-12-25T04:53:51.002Z,6.91
2018-12-25T04:54:50.987Z,6.93
2018-12-25T04:55:50.957Z,6.92
2018-12-25T04:56:50.936Z,6.86
2018-12-25T04:57:50.913Z,6.82
2018-12-25T04:58:50.894Z,6.70
2018-12-25T04:59:50.870Z,6.63
2018-12-25T05:00:50.848Z,6.68
2018-12-25T05:01:50.829Z,6.63
2018-12-25T05:02:50.808Z,6.70
2018-12-25T05:03:50.786Z,6.82
2018-12-25T05:04:50.768Z,6.82
2018-12-25T05:05:50.746Z,6.81
2018-12-25T05:06:50.720Z,6.73
2018-12-25T05:07:50.701Z,6.70
2018-12-25T05:08:50.675Z,6.70
2018-12-25T05:09:50.655Z,6.70
2018-12-25T05:10:50.631Z,6.74
2018-12-25T05:11:50.609Z,6.70
2018-12-25T05:12:50.588Z,6.81
2018-12-25T05:13:50.578Z,6.73
2018-12-25T05:14:50.621Z,6.82
2018-12-25T05:15:50.524Z,6.79
2018-12-25T05:16:50.507Z,6.81
2018-12-25T05:17:50.483Z,6.79
2018-12-25T05:18:50.457Z,6.78
2018-12-25T05:19:50.435Z,6.79
2018-12-25T05:20:50.414Z,6.81
2018-12-25T05:21:50.392Z,6.75
2018-12-25T05:22:50.460Z,6.86
2018-12-25T05:23:50.349Z,6.75
2018-12-25T05:24:50.328Z,6.86
2018-12-25T05:25:50.307Z,6.81
2018-12-25T05:26:50.287Z,6.83
2018-12-25T05:27:50.261Z,6.88
2018-12-25T05:28:50.240Z,6.82
2018-12-25T05:29:50.816Z,6.86
2018-12-25T05:30:50.199Z,6.89
2018-12-25T05:31:50.173Z,6.92
2018-12-25T05:32:50.161Z,6.96
2018-12-25T05:33:50.137Z,6.97
2018-12-25T05:34:50.109Z,6.93
2018-12-25T05:35:50.093Z,6.96
2018-12-25T05:36:50.064Z,6.91
2018-12-25T05:37:50.044Z,6.89
2018-12-25T05:38:50.026Z,6.89
2018-12-25T05:39:49.999Z,6.91
2018-12-25T05:40:49.981Z,6.83
2018-12-25T05:41:49.957Z,6.70
2018-12-25T05:42:49.938Z,6.73
2018-12-25T05:43:49.914Z,6.81
2018-12-25T05:44:49.898Z,6.79
2018-12-25T05:45:49.872Z,6.73
2018-12-25T05:46:49.851Z,6.83
2018-12-25T05:47:49.836Z,6.88
2018-12-25T05:48:49.805Z,6.79
2018-12-25T05:49:49.782Z,6.99
2018-12-25T05:50:49.762Z,6.89
2018-12-25T05:51:49.737Z,6.79
2018-12-25T05:52:49.715Z,6.91
2018-12-25T05:53:49.700Z,6.88
2018-12-25T05:54:49.677Z,6.97
2018-12-25T05:55:49.655Z,6.92
2018-12-25T05:56:49.633Z,6.93
2018-12-25T05:57:49.607Z,6.96
2018-12-25T05:58:49.585Z,6.89
2018-12-25T05:59:49.563Z,6.79
2018-12-25T06:00:49.543Z,6.88
2018-12-25T06:01:49.521Z,6.85
2018-12-25T06:02:49.497Z,6.83
2018-12-25T06:03:49.476Z,6.97
2018-12-25T06:04:49.456Z,6.97
2018-12-25T06:05:49.433Z,7.03
2018-12-25T06:06:49.412Z,6.91
2018-12-25T06:07:49.390Z,7.00
2018-12-25T06:08:49.368Z,7.03
2018-12-25T06:09:49.357Z,7.03
2018-12-25T06:10:49.326Z,7.18
2018-12-25T06:11:49.303Z,7.10
2018-12-25T06:12:49.286Z,7.21
2018-12-25T06:13:49.261Z,7.03
2018-12-25T06:14:49.241Z,7.06
2018-12-25T06:15:49.217Z,7.06
2018-12-25T06:16:49.196Z,7.10
2018-12-25T06:17:49.172Z,7.04
2018-12-25T06:18:49.150Z,7.01
2018-12-25T06:19:49.133Z,7.13
2018-12-25T06:20:55.044Z,7.15
2018-12-25T06:21:49.088Z,7.10
2018-12-25T06:22:49.065Z,7.07
2018-12-25T06:23:49.048Z,7.16
2018-12-25T06:24:49.022Z,7.11
2018-12-25T06:25:49.000Z,7.10
2018-12-25T06:26:48.979Z,7.15
2018-12-25T06:27:48.956Z,7.10
2018-12-25T06:28:48.936Z,7.01
2018-12-25T06:29:48.916Z,7.04
2018-12-25T06:30:48.892Z,7.10
2018-12-25T06:31:48.871Z,7.03
2018-12-25T06:32:48.848Z,7.08
2018-12-25T06:33:48.827Z,7.15
2018-12-25T06:34:48.806Z,7.15
2018-12-25T06:35:48.785Z,7.13
2018-12-25T06:36:48.762Z,7.19
2018-12-25T06:37:48.745Z,7.06
2018-12-25T06:38:48.723Z,7.06
2018-12-25T06:39:48.701Z,7.11
2018-12-25T06:40:48.684Z,7.04
2018-12-25T06:41:48.652Z,7.04
2018-12-25T06:42:48.640Z,7.06
2018-12-25T06:43:48.612Z,7.07
2018-12-25T06:44:48.593Z,7.13
2018-12-25T06:45:48.569Z,7.03
2018-12-25T06:46:48.551Z,7.11
2018-12-25T06:47:48.527Z,7.11
2018-12-25T06:48:48.504Z,7.11
2018-12-25T06:49:48.482Z,7.16
2018-12-25T06:50:48.460Z,7.13
2018-12-25T06:51:48.438Z,7.06
2018-12-25T06:52:48.417Z,7.08
2018-12-25T06:53:48.398Z,7.19
2018-12-25T06:54:48.377Z,7.04
2018-12-25T06:55:48.355Z,7.10
2018-12-25T06:56:48.334Z,7.01
2018-12-25T06:57:48.308Z,7.06
2018-12-25T06:58:48.287Z,7.07
2018-12-25T06:59:48.265Z,7.07
2018-12-25T07:00:48.241Z,7.16
2018-12-25T07:01:48.222Z,6.99
2018-12-25T07:02:48.200Z,7.06
2018-12-25T07:03:48.179Z,6.99
2018-12-25T07:04:48.166Z,6.97
2018-12-25T07:05:48.137Z,7.06
2018-12-25T07:06:48.115Z,6.93
2018-12-25T07:07:48.093Z,6.93
2018-12-25T07:08:48.078Z,6.83
2018-12-25T07:09:48.048Z,6.89
2018-12-25T07:10:48.025Z,6.91
2018-12-25T07:11:48.003Z,6.91
2018-12-25T07:12:47.996Z,6.99
2018-12-25T07:13:47.961Z,7.03
2018-12-25T07:14:47.940Z,7.00
2018-12-25T07:15:47.918Z,7.03
2018-12-25T07:16:47.896Z,6.99
2018-12-25T07:17:47.875Z,6.99
2018-12-25T07:18:47.854Z,7.07
2018-12-25T07:19:47.832Z,7.07
2018-12-25T07:20:47.810Z,7.07
2018-12-25T07:21:47.791Z,7.19
2018-12-25T07:22:47.765Z,7.10
2018-12-25T07:23:47.742Z,7.01
2018-12-25T07:24:47.720Z,7.16
2018-12-25T07:25:47.697Z,7.10
2018-12-25T07:26:47.680Z,6.99
2018-12-25T07:27:47.655Z,7.03
2018-12-25T07:28:47.641Z,7.06
2018-12-25T07:29:47.613Z,7.10
2018-12-25T07:30:47.588Z,6.99
2018-12-25T07:31:47.567Z,7.06
2018-12-25T07:32:47.548Z,6.99
2018-12-25T07:33:47.524Z,7.01
2018-12-25T07:34:47.508Z,6.93
2018-12-25T07:35:47.481Z,7.04
2018-12-25T07:36:47.463Z,7.01
2018-12-25T07:37:47.439Z,7.06
2018-12-25T07:38:47.417Z,7.13
2018-12-25T07:39:47.394Z,7.06
2018-12-25T07:40:47.372Z,7.18
2018-12-25T07:41:47.350Z,7.10
2018-12-25T07:42:47.330Z,7.15
2018-12-25T07:43:47.311Z,7.10
2018-12-25T07:44:47.284Z,7.11
2018-12-25T07:45:47.264Z,7.21
2018-12-25T07:46:47.251Z,7.28
2018-12-25T07:47:47.226Z,7.25
2018-12-25T07:48:47.200Z,7.25
2018-12-25T07:49:47.181Z,7.34
2018-12-25T07:50:47.155Z,7.31
2018-12-25T07:51:47.137Z,7.25
2018-12-25T07:52:47.114Z,7.34
2018-12-25T07:53:47.096Z,7.40
2018-12-25T07:54:47.070Z,7.37
2018-12-25T07:55:47.048Z,7.36
2018-12-25T07:56:47.029Z,7.29
2018-12-25T07:57:47.009Z,7.29
2018-12-25T07:58:46.986Z,7.19
2018-12-25T07:59:46.963Z,7.21
2018-12-25T08:00:46.949Z,7.26
2018-12-25T08:01:46.921Z,7.22
2018-12-25T08:02:46.909Z,7.31
2018-12-25T08:03:46.878Z,7.26
2018-12-25T08:04:46.856Z,7.25
2018-12-25T08:05:46.833Z,7.24
2018-12-25T08:06:46.812Z,7.24
2018-12-25T08:07:46.791Z,7.21
2018-12-25T08:08:46.769Z,7.13
2018-12-25T08:09:46.749Z,7.08
2018-12-25T08:10:46.735Z,7.11
2018-12-25T08:11:46.702Z,7.13
2018-12-25T08:12:46.684Z,7.11
2018-12-25T08:13:46.665Z,7.28
2018-12-25T08:14:46.641Z,7.22
2018-12-25T08:15:46.616Z,7.29
2018-12-25T08:16:46.669Z,7.29
2018-12-25T08:17:46.580Z,7.37
2018-12-25T08:18:46.552Z,7.40
2018-12-25T08:19:46.532Z,7.37
2018-12-25T08:20:46.509Z,7.33
2018-12-25T08:21:46.493Z,7.40
2018-12-25T08:22:46.474Z,7.40
2018-12-25T08:23:46.445Z,7.39
2018-12-25T08:24:46.428Z,7.43
2018-12-25T08:25:46.402Z,7.42
2018-12-25T08:26:46.384Z,7.44
2018-12-25T08:27:46.362Z,7.40
2018-12-25T08:28:46.339Z,7.40
2018-12-25T08:29:46.323Z,7.44
2018-12-25T08:30:46.295Z,7.37
2018-12-25T08:31:46.277Z,7.40
2018-12-25T08:32:46.252Z,7.39
2018-12-25T08:33:46.232Z,7.49
2018-12-25T08:34:46.210Z,7.44
2018-12-25T08:35:46.188Z,7.50
2018-12-25T08:36:46.169Z,7.55
2018-12-25T08:37:46.145Z,7.47
2018-12-25T08:38:46.125Z,7.46
2018-12-25T08:39:46.103Z,7.49
2018-12-25T08:40:46.080Z,7.46
2018-12-25T08:41:46.057Z,7.49
2018-12-25T08:42:46.038Z,7.43
2018-12-25T08:43:46.017Z,7.46
2018-12-25T08:44:45.995Z,7.40
2018-12-25T08:45:45.975Z,7.44
2018-12-25T08:46:45.952Z,7.43
2018-12-25T08:47:45.938Z,7.50
2018-12-25T08:48:45.912Z,7.55
2018-12-25T08:49:45.889Z,7.50
2018-12-25T08:50:45.869Z,7.44
2018-12-25T08:51:45.844Z,7.47
2018-12-25T08:52:45.833Z,7.44
2018-12-25T08:53:45.803Z,7.49
2018-12-25T08:54:45.785Z,7.43
2018-12-25T08:55:47.347Z,7.46
2018-12-25T08:56:45.739Z,7.46
2018-12-25T08:57:45.719Z,7.44
2018-12-25T08:58:45.700Z,7.44
2018-12-25T08:59:45.676Z,7.46
2018-12-25T09:00:45.659Z,7.47
2018-12-25T09:01:45.642Z,7.50
2018-12-25T09:02:45.615Z,7.49
2018-12-25T09:03:45.587Z,7.49
2018-12-25T09:04:45.570Z,7.49
2018-12-25T09:05:45.545Z,7.49
2018-12-25T09:06:45.526Z,7.47
2018-12-25T09:07:45.509Z,7.54
2018-12-25T09:08:45.484Z,7.46
2018-12-25T09:09:45.464Z,7.44
2018-12-25T09:10:45.451Z,7.44
2018-12-25T09:11:45.421Z,7.49
2018-12-25T09:12:45.406Z,7.50
2018-12-25T09:13:45.376Z,7.47
2018-12-25T09:14:45.352Z,7.54
2018-12-25T09:15:45.335Z,7.64
2018-12-25T09:16:45.314Z,7.71
2018-12-25T09:17:45.294Z,7.68
2018-12-25T09:18:45.270Z,7.61
2018-12-25T09:19:45.245Z,7.60
2018-12-25T09:20:45.226Z,7.77
2018-12-25T09:21:46.357Z,7.60
2018-12-25T09:22:45.184Z,7.71
2018-12-25T09:23:45.162Z,7.74
2018-12-25T09:24:45.140Z,7.74
2018-12-25T09:25:45.120Z,7.71
2018-12-25T09:26:45.099Z,7.64
2018-12-25T09:27:45.077Z,7.86
2018-12-25T09:28:45.056Z,7.83
2018-12-25T09:29:45.035Z,7.86
2018-12-25T09:30:45.017Z,7.80
2018-12-25T09:31:44.993Z,7.91
2018-12-25T09:32:44.971Z,7.99
2018-12-25T09:33:44.957Z,8.09
2018-12-25T09:34:44.930Z,8.02
2018-12-25T09:35:44.908Z,8.14
2018-12-25T09:36:44.890Z,8.17
2018-12-25T09:37:44.867Z,8.21
2018-12-25T09:38:44.847Z,8.20
2018-12-25T09:39:44.827Z,8.31
2018-12-25T09:40:44.803Z,8.38
2018-12-25T09:41:44.784Z,8.34
2018-12-25T09:42:44.766Z,8.38
2018-12-25T09:43:44.742Z,8.35
2018-12-25T09:44:44.724Z,8.46
2018-12-25T09:45:44.705Z,8.52
2018-12-25T09:46:44.682Z,8.57
2018-12-25T09:47:44.659Z,8.49
2018-12-25T09:48:44.638Z,8.38
2018-12-25T09:49:44.617Z,8.59
2018-12-25T09:50:44.596Z,8.67
2018-12-25T09:51:44.578Z,9.29
2018-12-25T09:52:44.563Z,9.96
2018-12-25T09:53:44.537Z,10.78
2018-12-25T09:54:44.581Z,11.08
2018-12-25T09:55:44.500Z,10.98
2018-12-25T09:56:44.480Z,10.45
2018-12-25T09:57:44.461Z,10.05
2018-12-25T09:58:44.442Z,9.73
2018-12-25T09:59:44.424Z,9.48
2018-12-25T10:00:44.404Z,9.48
2018-12-25T10:01:44.387Z,9.26
2018-12-25T10:02:44.374Z,9.24
2018-12-25T10:03:44.352Z,9.18
2018-12-25T10:04:44.329Z,9.26
2018-12-25T10:05:44.313Z,9.01
2018-12-25T10:06:44.293Z,8.99
2018-12-25T10:07:44.270Z,8.98
2018-12-25T10:08:44.252Z,8.71
2018-12-25T10:09:44.231Z,8.67
2018-12-25T10:10:44.209Z,8.67
2018-12-25T10:11:44.811Z,8.62
2018-12-25T10:12:44.175Z,8.72
2018-12-25T10:13:44.153Z,8.67
2018-12-25T10:14:44.130Z,8.67
2018-12-25T10:15:44.114Z,8.62
2018-12-25T10:16:44.091Z,8.62
2018-12-25T10:17:44.074Z,8.67
2018-12-25T10:18:44.052Z,8.75
2018-12-25T10:19:44.036Z,8.77
2018-12-25T10:20:44.066Z,8.83
2018-12-25T10:21:43.996Z,8.86
2018-12-25T10:22:43.972Z,8.96
2018-12-25T10:23:43.952Z,8.96
2018-12-25T10:24:43.933Z,9.11
2018-12-25T10:25:43.928Z,9.16
2018-12-25T10:26:43.895Z,9.59
2018-12-25T10:27:43.873Z,9.77
2018-12-25T10:28:43.868Z,9.41
2018-12-25T10:29:43.835Z,9.27
2018-12-25T10:30:43.967Z,9.09
2018-12-25T10:31:43.798Z,9.08
2018-12-25T10:32:43.778Z,8.96
2018-12-25T10:33:43.757Z,8.85
2018-12-25T10:34:43.746Z,8.92
2018-12-25T10:35:43.718Z,8.99
2018-12-25T10:36:43.702Z,9.03
2018-12-25T10:37:43.681Z,9.23
2018-12-25T10:38:43.662Z,9.44
2018-12-25T10:39:43.644Z,10.26
2018-12-25T10:40:43.622Z,9.91
2018-12-25T10:41:43.602Z,10.31
2018-12-25T10:42:43.586Z,11.12
2018-12-25T10:43:43.564Z,11.23
2018-12-25T10:44:43.547Z,11.23
2018-12-25T10:45:43.528Z,11.05
2018-12-25T10:46:43.511Z,10.91
2018-12-25T10:47:43.498Z,10.98
2018-12-25T10:48:43.478Z,11.09
2018-12-25T10:49:43.457Z,10.91
2018-12-25T10:50:43.447Z,10.76
2018-12-25T10:51:43.420Z,10.90
2018-12-25T10:52:43.415Z,10.76
2018-12-25T10:53:43.385Z,10.52
2018-12-25T10:54:43.370Z,10.49
2018-12-25T10:55:43.352Z,10.24
2018-12-25T10:56:43.339Z,10.26
2018-12-25T10:57:43.319Z,10.23
2018-12-25T10:58:43.298Z,10.28
2018-12-25T10:59:43.283Z,10.23
2018-12-25T11:00:43.260Z,10.24
2018-12-25T11:01:43.242Z,10.24
2018-12-25T11:02:43.225Z,10.24
2018-12-25T11:03:43.206Z,10.08
2018-12-25T11:04:43.215Z,10.03
2018-12-25T11:05:43.172Z,9.90
2018-12-25T11:06:43.156Z,9.84
2018-12-25T11:07:43.136Z,9.67
2018-12-25T11:08:43.117Z,9.70
2018-12-25T11:09:43.102Z,10.09
2018-12-25T11:10:43.081Z,10.09
2018-12-25T11:11:43.058Z,9.99
2018-12-25T11:12:43.039Z,9.93
2018-12-25T11:13:43.023Z,10.02
2018-12-25T11:14:43.015Z,9.93
2018-12-25T11:15:42.985Z,9.94
2018-12-25T11:16:42.963Z,9.90
2018-12-25T11:17:42.944Z,9.91
2018-12-25T11:18:49.061Z,9.90
2018-12-25T11:19:42.905Z,9.93
2018-12-25T11:20:42.907Z,9.87
2018-12-25T11:21:42.873Z,9.93
2018-12-25T11:22:42.855Z,9.88
2018-12-25T11:23:42.834Z,9.77
2018-12-25T11:24:42.815Z,9.75
2018-12-25T11:25:42.792Z,9.78
2018-12-25T11:26:42.775Z,9.72
2018-12-25T11:27:42.756Z,9.65
2018-12-25T11:28:42.737Z,9.73
2018-12-25T11:29:42.717Z,9.70
2018-12-25T11:30:42.700Z,9.75
2018-12-25T11:31:42.679Z,9.77
2018-12-25T11:32:42.660Z,9.94
2018-12-25T11:33:42.649Z,9.93
2018-12-25T11:34:42.621Z,10.06
2018-12-25T11:35:42.602Z,10.16
2018-12-25T11:36:42.587Z,10.23
2018-12-25T11:37:42.563Z,10.34
2018-12-25T11:38:42.546Z,10.31
2018-12-25T11:39:42.540Z,10.54
2018-12-25T11:40:42.507Z,10.79
2018-12-25T11:41:42.489Z,10.78
2018-12-25T11:42:42.473Z,10.83
2018-12-25T11:43:42.457Z,10.62
2018-12-25T11:44:42.433Z,10.49
2018-12-25T11:45:42.416Z,10.38
2018-12-25T11:46:42.395Z,10.42
2018-12-25T11:47:42.380Z,10.36
2018-12-25T11:48:42.363Z,10.27
2018-12-25T11:49:42.348Z,10.46
2018-12-25T11:50:42.323Z,10.93
2018-12-25T11:51:42.309Z,11.20
2018-12-25T11:52:42.289Z,11.45
2018-12-25T11:53:42.270Z,11.37
2018-12-25T11:54:42.249Z,11.34
2018-12-25T11:55:42.234Z,11.41
2018-12-25T11:56:42.213Z,11.34
2018-12-25T11:57:42.204Z,11.22
2018-12-25T11:58:42.180Z,11.25
2018-12-25T11:59:42.160Z,10.97
2018-12-25T12:00:42.147Z,10.73
2018-12-25T12:01:42.128Z,10.65
2018-12-25T12:02:42.109Z,10.62
2018-12-25T12:03:42.099Z,10.55
2018-12-25T12:04:42.077Z,10.43
2018-12-25T12:05:42.054Z,10.49
2018-12-25T12:06:42.035Z,10.41
2018-12-25T12:07:42.022Z,10.35
2018-12-25T12:08:42.004Z,10.24
2018-12-25T12:09:41.981Z,10.21
2018-12-25T12:10:41.963Z,10.10
2018-12-25T12:11:41.951Z,10.09
2018-12-25T12:12:41.930Z,10.06
2018-12-25T12:13:41.912Z,10.02
2018-12-25T12:14:41.890Z,10.09
2018-12-25T12:15:41.869Z,10.10
2018-12-25T12:16:41.860Z,10.14
2018-12-25T12:17:41.837Z,10.10
2018-12-25T12:18:41.817Z,10.16
2018-12-25T12:19:41.796Z,10.06
2018-12-25T12:20:41.777Z,10.12
2018-12-25T12:21:41.758Z,10.01
2018-12-25T12:22:41.742Z,10.38
2018-12-25T12:23:41.718Z,10.46
2018-12-25T12:24:41.699Z,10.42
2018-12-25T12:25:41.681Z,10.41
2018-12-25T12:26:41.663Z,10.54
2018-12-25T12:27:41.643Z,10.43
2018-12-25T12:28:41.624Z,10.57
2018-12-25T12:29:41.607Z,10.78
2018-12-25T12:30:41.590Z,10.64
2018-12-25T12:31:41.570Z,10.55
2018-12-25T12:32:41.554Z,10.61
2018-12-25T12:33:41.532Z,10.58
2018-12-25T12:34:41.525Z,10.41
2018-12-25T12:35:41.500Z,10.57
2018-12-25T12:36:41.477Z,10.61
2018-12-25T12:37:41.459Z,10.73
2018-12-25T12:38:41.438Z,10.72
2018-12-25T12:39:41.422Z,10.54
2018-12-25T12:40:41.401Z,10.54
2018-12-25T12:41:41.396Z,10.35
2018-12-25T12:42:41.368Z,10.42
2018-12-25T12:43:41.346Z,10.36
2018-12-25T12:44:41.333Z,10.38
2018-12-25T12:45:41.311Z,10.38
2018-12-25T12:46:41.296Z,10.38
2018-12-25T12:47:41.277Z,10.28
2018-12-25T12:48:41.252Z,10.35
2018-12-25T12:49:41.235Z,10.28
2018-12-25T12:50:41.217Z,10.28
2018-12-25T12:51:41.195Z,10.24
2018-12-25T12:52:45.481Z,10.23
2018-12-25T12:53:41.160Z,10.24
2018-12-25T12:54:41.141Z,10.23
2018-12-25T12:55:41.121Z,10.27
2018-12-25T12:56:41.101Z,10.38
2018-12-25T12:57:41.091Z,10.34
2018-12-25T12:58:41.074Z,10.17
2018-12-25T12:59:41.043Z,10.21
2018-12-25T13:00:41.026Z,10.18
2018-12-25T13:01:41.011Z,10.08
2018-12-25T13:02:40.990Z,10.08
2018-12-25T13:03:40.971Z,10.20
2018-12-25T13:04:40.953Z,10.24
2018-12-25T13:05:40.934Z,10.23
2018-12-25T13:06:40.923Z,10.28
2018-12-25T13:07:40.895Z,10.20
2018-12-25T13:08:40.879Z,10.27
2018-12-25T13:09:40.858Z,10.28
2018-12-25T13:10:40.843Z,10.36
2018-12-25T13:11:40.816Z,10.34
2018-12-25T13:12:40.803Z,10.41
2018-12-25T13:13:40.781Z,10.55
2018-12-25T13:14:40.761Z,10.72